createdAt,value
2022-09-13T00:17:39.000Z,9.1
2022-09-13T00:47:44.000Z,8.8
2022-09-13T01:17:45.000Z,8.5
2022-09-13T01:47:49.000Z,8.3
2022-09-13T02:17:50.000Z,7.9
2022-09-13T02:48:00.000Z,7.9
2022-09-13T03:18:04.000Z,7.4
2022-09-13T03:48:05.000Z,7.4
2022-09-13T04:18:12.000Z,7.4
2022-09-13T04:48:22.000Z,7.7
2022-09-13T05:18:26.000Z,7.7
2022-09-13T05:48:31.000Z,8.2
2022-09-13T06:18:36.000Z,9.0
2022-09-13T06:48:37.000Z,9.6
2022-09-13T07:18:43.000Z,11.2
2022-09-13T07:48:46.000Z,14.1
2022-09-13T08:18:47.000Z,17.3
2022-09-13T08:48:56.000Z,19.6
2022-09-13T09:18:59.000Z,20.7
2022-09-13T09:49:00.000Z,23.4
2022-09-13T10:19:07.000Z,25.1
2022-09-13T10:49:20.000Z,25.9
2022-09-13T11:19:22.000Z,27.2
2022-09-13T11:49:23.000Z,26.5
2022-09-13T12:19:33.000Z,26.2
2022-09-13T12:49:35.000Z,28.7
2022-09-13T13:19:45.000Z,29.3
2022-09-13T13:49:50.000Z,28.8
2022-09-13T14:19:51.000Z,27.1
2022-09-13T14:49:54.686Z,25.7
2022-09-13T15:19:56.000Z,26.4
2022-09-13T15:50:06.928Z,24.3
2022-09-13T16:20:08.556Z,22.3
2022-09-13T16:50:08.657Z,22
2022-09-13T17:20:18.602Z,20.6
2022-09-13T17:50:19.614Z,19
2022-09-13T18:20:29.651Z,18
2022-09-13T18:50:33.727Z,17.7
2022-09-13T19:20:36.829Z,17.4
2022-09-13T19:50:37.635Z,17.2
2022-09-13T20:20:46.688Z,17.1
2022-09-13T20:50:48.705Z,16.9
2022-09-13T21:20:52.803Z,16.6
2022-09-13T21:50:55.783Z,16.2
2022-09-13T22:21:00.762Z,16.3
2022-09-13T22:51:05.781Z,16.1
2022-09-13T23:21:06.825Z,16.1
2022-09-13T23:51:07.000Z,16.1
